Time;durP1;ratioP1;P1;durP2;ratioP2;P2;SDS_P1;SDS_P2;PMS_P1;PMS_P2;Temp;Humidity;BMP_temperature;BMP_pressure;BME280_temperature;BME280_humidity;BME280_pressure;Samples;Min_cycle;Max_cycle;Signal;HPM_P1;HPM_P2
2022/12/09 00:01:44;;;;;;;55.90;49.70;;;;;;;1.44;71.56;99627.23;108439;1280;21935;-79
2022/12/09 00:04:14;;;;;;;57.20;49.80;;;;;;;1.43;71.60;99628.98;108158;1281;23064;-79
2022/12/09 00:06:43;;;;;;;61.00;52.30;;;;;;;1.42;71.57;99628.81;108417;1269;23088;-81
2022/12/09 00:09:14;;;;;;;60.70;52.90;;;;;;;1.41;71.58;99633.96;108071;1281;21942;-81
2022/12/09 00:11:43;;;;;;;58.50;51.70;;;;;;;1.41;71.53;99639.11;108218;1281;23756;-80
2022/12/09 00:14:12;;;;;;;64.80;54.60;;;;;;;1.38;71.50;99642.91;108443;1278;23053;-80
2022/12/09 00:16:41;;;;;;;72.20;59.20;;;;;;;1.37;71.61;99641.55;108047;1280;23601;-78
2022/12/09 00:19:10;;;;;;;62.90;56.20;;;;;;;1.35;71.40;99645.36;108445;1280;22123;-79
2022/12/09 00:21:40;;;;;;;69.50;59.10;;;;;;;1.28;71.42;99645.59;108175;1280;21944;-78
2022/12/09 00:24:12;;;;;;;76.80;62.60;;;;;;;1.20;71.33;99644.98;108432;1280;23624;-77
2022/12/09 00:26:41;;;;;;;83.00;65.50;;;;;;;1.12;71.40;99645.42;108395;1280;21937;-79
2022/12/09 00:29:10;;;;;;;72.90;62.20;;;;;;;1.07;71.59;99647.38;107942;1283;22009;-78
2022/12/09 00:31:39;;;;;;;77.10;63.60;;;;;;;1.01;71.61;99648.63;107968;1283;23065;-78
2022/12/09 00:34:12;;;;;;;70.60;62.20;;;;;;;0.96;71.75;99652.79;107911;1284;21988;-79
2022/12/09 00:36:41;;;;;;;73.70;65.70;;;;;;;0.92;71.82;99656.42;107695;1283;23638;-78
2022/12/09 00:39:11;;;;;;;72.10;63.70;;;;;;;0.89;71.88;99660.40;107989;1281;23955;-78
2022/12/09 00:41:40;;;;;;;70.40;62.50;;;;;;;0.86;71.92;99661.11;107645;1283;23855;-78
2022/12/09 00:44:10;;;;;;;73.40;65.50;;;;;;;0.82;71.84;99662.86;107977;1283;22027;-78
2022/12/09 00:46:38;;;;;;;67.60;60.40;;;;;;;0.80;72.07;99666.13;108018;1280;22315;-79
2022/12/09 00:49:10;;;;;;;67.20;59.80;;;;;;;0.82;72.16;99664.06;108369;1280;21944;-78
2022/12/09 00:51:39;;;;;;;70.20;62.20;;;;;;;0.85;72.26;99660.94;108098;1280;23862;-78
2022/12/09 00:54:08;;;;;;;69.40;61.90;;;;;;;0.90;72.20;99664.50;108414;1280;21930;-79
2022/12/09 00:56:37;;;;;;;67.90;59.00;;;;;;;0.94;72.26;99663.60;108083;1279;23005;-79
2022/12/09 00:59:06;;;;;;;67.60;60.30;;;;;;;0.99;72.16;99660.48;108147;1280;21933;-78
2022/12/09 01:01:35;;;;;;;64.70;57.50;;;;;;;1.00;72.17;99657.20;108101;1283;22811;-80
2022/12/09 01:04:07;;;;;;;67.60;56.10;;;;;;;1.02;72.10;99657.86;108122;1280;22280;-78
2022/12/09 01:06:36;;;;;;;69.70;57.80;;;;;;;1.03;72.08;99656.48;107951;1285;23061;-80
2022/12/09 01:09:05;;;;;;;70.10;62.50;;;;;;;1.02;71.98;99659.41;107838;1286;23055;-79
2022/12/09 01:11:34;;;;;;;71.60;60.70;;;;;;;1.00;71.93;99660.13;108019;1286;22542;-79
2022/12/09 01:14:03;;;;;;;71.40;60.20;;;;;;;0.96;71.96;99662.56;107920;1286;23794;-79
2022/12/09 01:16:33;;;;;;;67.60;57.90;;;;;;;0.89;72.01;99667.92;107677;1286;22156;-80
2022/12/09 01:19:07;;;;;;;64.50;57.30;;;;;;;0.86;72.09;99660.77;107928;1286;23113;-79
2022/12/09 01:21:37;;;;;;;74.20;58.00;;;;;;;0.85;72.13;99660.94;107694;1286;22083;-79
2022/12/09 01:24:09;;;;;;;68.30;59.40;;;;;;;0.85;72.22;99658.89;107729;1283;21932;-79
2022/12/09 01:26:38;;;;;;;67.40;59.20;;;;;;;0.85;72.28;99654.43;108127;1280;22061;-78
2022/12/09 01:29:07;;;;;;;66.10;56.10;;;;;;;0.87;72.37;99652.71;108009;1280;21929;-79
2022/12/09 01:31:36;;;;;;;65.50;56.30;;;;;;;0.92;72.50;99648.89;108160;1280;22244;-80
2022/12/09 01:34:06;;;;;;;66.40;57.20;;;;;;;0.97;72.56;99647.63;108204;1280;23041;-79
2022/12/09 01:36:35;;;;;;;62.60;53.60;;;;;;;1.02;72.43;99645.88;108196;1278;21941;-79
2022/12/09 01:39:05;;;;;;;63.10;54.90;;;;;;;1.05;72.43;99645.16;108423;1280;23593;-78
2022/12/09 01:41:34;;;;;;;63.10;54.60;;;;;;;1.08;72.41;99647.02;108397;1280;23087;-79
2022/12/09 01:44:14;;;;;;;66.90;56.00;;;;;;;1.09;72.25;99650.42;108397;1280;21944;-80
2022/12/09 01:46:44;;;;;;;61.10;52.50;;;;;;;1.08;72.24;99647.35;108096;1280;21945;-79
2022/12/09 01:49:27;;;;;;;62.80;52.40;;;;;;;1.08;72.27;99647.17;108246;1281;23581;-79
2022/12/09 01:52:17;;;;;;;58.80;51.50;;;;;;;1.08;72.20;99644.09;108254;1268;23136;-79
2022/12/09 01:54:50;;;;;;;65.50;53.10;;;;;;;1.06;72.11;99643.77;108415;1279;23031;-79
2022/12/09 01:57:19;;;;;;;56.50;50.00;;;;;;;1.04;72.16;99641.05;108132;1280;21898;-79
2022/12/09 01:59:49;;;;;;;57.60;49.40;;;;;;;1.02;72.22;99639.02;107859;1286;23606;-80
2022/12/09 02:02:19;;;;;;;57.80;51.30;;;;;;;1.04;72.34;99642.59;107872;1286;23101;-80
2022/12/09 02:04:49;;;;;;;61.50;50.20;;;;;;;1.05;72.35;99638.98;107655;1288;23090;-80
2022/12/09 02:07:19;;;;;;;55.90;49.00;;;;;;;1.07;72.28;99638.63;107993;1285;23766;-80
2022/12/09 02:09:51;;;;;;;60.60;48.10;;;;;;;1.09;72.23;99643.92;107995;1286;23627;-80
2022/12/09 02:12:59;;;;;;;55.20;47.50;;;;;;;1.08;72.20;99647.19;107954;1286;21941;-80
2022/12/09 02:15:53;;;;;;;53.50;46.40;;;;;;;1.05;72.27;99646.87;108027;1286;23915;-79
2022/12/09 02:18:41;;;;;;;57.80;47.90;;;;;;;1.05;72.41;99648.92;107948;1281;22041;-79
2022/12/09 02:21:35;;;;;;;56.10;46.00;;;;;;;1.09;72.51;99651.80;108246;1278;23630;-79
2022/12/09 02:24:27;;;;;;;56.40;46.00;;;;;;;1.10;72.40;99650.09;108435;1280;23618;-79
2022/12/09 02:27:23;;;;;;;49.70;43.60;;;;;;;1.10;72.45;99646.48;108162;1281;21990;-80
2022/12/09 02:30:17;;;;;;;51.90;43.30;;;;;;;1.12;72.55;99650.90;108445;1280;23662;-79
2022/12/09 02:33:09;;;;;;;53.50;43.90;;;;;;;1.14;72.40;99651.07;108418;1280;21944;-79
2022/12/09 02:35:55;;;;;;;48.90;41.80;;;;;;;1.16;72.50;99651.39;108233;1280;21993;-80
2022/12/09 02:38:29;;;;;;;52.50;42.50;;;;;;;1.20;72.42;99650.48;108102;1281;22011;-79
2022/12/09 02:41:20;;;;;;;49.80;40.30;;;;;;;1.21;72.32;99645.67;108462;1280;24326;-79
2022/12/09 02:44:10;;;;;;;50.80;40.90;;;;;;;1.22;72.27;99644.11;108242;1280;23021;-80
2022/12/09 02:46:41;;;;;;;49.90;40.10;;;;;;;1.22;72.29;99639.50;108246;1280;22878;-79
2022/12/09 02:49:13;;;;;;;49.50;41.30;;;;;;;1.24;72.18;99639.64;108226;1280;23090;-79
2022/12/09 02:51:44;;;;;;;46.70;39.70;;;;;;;1.24;72.11;99641.36;108175;1281;23042;-79
2022/12/09 02:54:17;;;;;;;51.30;42.50;;;;;;;1.24;72.16;99640.16;108460;1280;21940;-79
2022/12/09 02:56:59;;;;;;;45.60;40.30;;;;;;;1.25;72.15;99641.51;108121;1283;23063;-79
2022/12/09 02:59:29;;;;;;;48.80;41.80;;;;;;;1.24;72.10;99643.24;108138;1281;23711;-78
2022/12/09 03:02:20;;;;;;;49.10;41.40;;;;;;;1.25;72.14;99642.90;108172;1279;23591;-79
2022/12/09 03:05:39;;;;;;;50.90;40.80;;;;;;;1.26;72.12;99641.52;108434;1276;23602;-78
2022/12/09 03:08:37;;;;;;;48.10;39.30;;;;;;;1.26;72.21;99635.85;108318;1280;23770;-80
2022/12/09 03:11:10;;;;;;;47.20;41.90;;;;;;;1.29;72.25;99634.80;108456;1278;23945;-80
2022/12/09 03:14:10;;;;;;;48.70;40.80;;;;;;;1.32;72.13;99630.81;108434;1280;22990;-80
2022/12/09 03:16:53;;;;;;;49.30;41.40;;;;;;;1.33;72.09;99630.97;108086;1280;21990;-79
2022/12/09 03:19:43;;;;;;;43.30;38.40;;;;;;;1.31;71.94;99630.81;107605;1280;22725;-80
2022/12/09 03:22:19;;;;;;;44.10;38.30;;;;;;;1.26;71.88;99630.03;107919;1289;24623;-80
2022/12/09 03:24:54;;;;;;;42.20;36.70;;;;;;;1.22;71.86;99627.33;107689;1277;23714;-78
2022/12/09 03:27:59;;;;;;;44.00;38.60;;;;;;;1.21;71.87;99629.23;107730;1277;23112;-79
2022/12/09 03:30:36;;;;;;;46.70;39.00;;;;;;;1.18;71.96;99627.19;107682;1288;21951;-79
2022/12/09 03:33:07;;;;;;;45.20;39.40;;;;;;;1.17;72.13;99625.15;107373;1292;23071;-78
2022/12/09 03:35:52;;;;;;;47.10;39.70;;;;;;;1.21;72.11;99619.80;107538;1286;22137;-80
2022/12/09 03:38:27;;;;;;;47.30;38.50;;;;;;;1.25;72.17;99615.30;108364;1280;23097;-80
2022/12/09 03:41:31;;;;;;;43.50;38.50;;;;;;;1.28;72.04;99614.39;108400;1280;22990;-80
2022/12/09 03:44:18;;;;;;;47.90;39.30;;;;;;;1.31;72.07;99611.80;108246;1280;21942;-81
2022/12/09 03:46:47;;;;;;;49.60;40.10;;;;;;;1.34;72.13;99609.71;108320;1281;22003;-81
2022/12/09 03:49:17;;;;;;;49.30;40.10;;;;;;;1.37;71.93;99614.83;108161;1281;22710;-80
2022/12/09 03:52:07;;;;;;;45.00;38.20;;;;;;;1.37;71.86;99618.75;108144;1283;24072;-80
2022/12/09 03:54:49;;;;;;;49.10;40.10;;;;;;;1.35;71.78;99617.57;108122;1283;23862;-80
2022/12/09 03:57:20;;;;;;;44.40;38.30;;;;;;;1.31;71.65;99612.31;108386;1280;21932;-79
2022/12/09 04:00:00;;;;;;;43.50;36.60;;;;;;;1.28;71.71;99608.73;108154;1278;23658;-80
2022/12/09 04:02:29;;;;;;;44.20;38.50;;;;;;;1.28;71.85;99605.66;108177;1283;21985;-78
2022/12/09 04:05:00;;;;;;;46.40;40.00;;;;;;;1.29;71.83;99610.27;108241;1280;23025;-80
2022/12/09 04:07:30;;;;;;;45.80;38.40;;;;;;;1.31;71.83;99610.24;108128;1280;21926;-80
2022/12/09 04:09:59;;;;;;;48.30;39.00;;;;;;;1.33;71.81;99614.69;108173;1284;21922;-79
2022/12/09 04:12:28;;;;;;;47.50;39.00;;;;;;;1.35;71.83;99614.65;108124;1283;23061;-78
2022/12/09 04:14:58;;;;;;;45.50;37.50;;;;;;;1.37;71.75;99614.98;108030;1281;23075;-78
2022/12/09 04:17:26;;;;;;;45.00;38.90;;;;;;;1.39;71.72;99614.10;108173;1280;21921;-80
2022/12/09 04:19:55;;;;;;;47.50;39.20;;;;;;;1.41;71.67;99613.57;108179;1280;23633;-79
2022/12/09 04:22:25;;;;;;;46.80;40.00;;;;;;;1.43;71.67;99616.11;108177;1282;23068;-79
2022/12/09 04:24:54;;;;;;;45.60;40.10;;;;;;;1.45;71.70;99619.00;108130;1283;21948;-79
2022/12/09 04:27:23;;;;;;;45.80;39.00;;;;;;;1.48;71.71;99623.93;108362;1280;22019;-79
2022/12/09 04:29:52;;;;;;;43.70;38.70;;;;;;;1.50;71.62;99626.14;108210;1281;23588;-80
2022/12/09 04:32:22;;;;;;;45.70;36.60;;;;;;;1.51;71.64;99627.16;108229;1280;23091;-81
2022/12/09 04:34:51;;;;;;;41.20;36.30;;;;;;;1.52;71.47;99626.63;108139;1280;21931;-79
2022/12/09 04:37:20;;;;;;;40.60;35.00;;;;;;;1.50;71.43;99630.59;108284;1266;23096;-79
2022/12/09 04:39:49;;;;;;;45.10;39.20;;;;;;;1.49;71.50;99634.73;108442;1280;21929;-81
2022/12/09 04:42:18;;;;;;;43.80;36.60;;;;;;;1.51;71.64;99637.96;108217;1281;21987;-80
2022/12/09 04:44:47;;;;;;;42.70;37.60;;;;;;;1.56;71.74;99641.33;108551;1280;22264;-81
2022/12/09 04:47:16;;;;;;;43.20;38.00;;;;;;;1.61;71.69;99641.79;108285;1282;23760;-80
2022/12/09 04:49:45;;;;;;;44.40;39.60;;;;;;;1.65;71.66;99641.90;108141;1281;23111;-82
2022/12/09 04:52:20;;;;;;;48.10;40.90;;;;;;;1.68;71.60;99643.58;108289;1283;21941;-80
2022/12/09 04:54:49;;;;;;;47.50;41.30;;;;;;;1.70;71.44;99645.95;108176;1281;23134;-79
2022/12/09 04:57:18;;;;;;;56.70;44.90;;;;;;;1.71;71.44;99650.21;108068;1280;23584;-81
2022/12/09 04:59:47;;;;;;;59.60;49.20;;;;;;;1.73;71.38;99651.56;108385;1280;23792;-80
2022/12/09 05:02:17;;;;;;;141.40;98.40;;;;;;;1.75;71.40;99656.17;108117;1283;22703;-79
2022/12/09 05:04:46;;;;;;;285.70;188.70;;;;;;;1.77;71.35;99655.81;108464;1278;21948;-80
2022/12/09 05:07:15;;;;;;;264.90;179.90;;;;;;;1.78;71.26;99653.23;108130;1277;23702;-80
2022/12/09 05:09:45;;;;;;;237.10;167.40;;;;;;;1.79;71.16;99653.89;108164;1283;23676;-80
2022/12/09 05:12:14;;;;;;;117.40;93.00;;;;;;;1.80;71.09;99653.73;108182;1283;22003;-80
2022/12/09 05:14:43;;;;;;;70.20;56.90;;;;;;;1.80;71.00;99653.21;108168;1283;22742;-81
2022/12/09 05:17:12;;;;;;;83.40;63.70;;;;;;;1.80;71.03;99652.67;108433;1281;23832;-83
2022/12/09 05:19:42;;;;;;;79.60;60.40;;;;;;;1.81;71.07;99653.02;108449;1280;21950;-81
2022/12/09 05:22:16;;;;;;;72.20;57.90;;;;;;;1.82;71.05;99651.98;108143;1283;21929;-80
2022/12/09 05:24:45;;;;;;;71.90;57.10;;;;;;;1.82;71.02;99646.65;108185;1276;23068;-79
2022/12/09 05:27:15;;;;;;;70.30;52.90;;;;;;;1.81;70.85;99647.02;108166;1283;21943;-80
2022/12/09 05:29:45;;;;;;;63.60;51.60;;;;;;;1.78;70.88;99649.63;108404;1280;23075;-78
2022/12/09 05:32:14;;;;;;;64.50;49.70;;;;;;;1.77;70.84;99650.48;108239;1271;24251;-79
2022/12/09 05:34:43;;;;;;;62.00;48.30;;;;;;;1.77;70.92;99651.69;108389;1280;23712;-78
2022/12/09 05:37:14;;;;;;;57.10;46.50;;;;;;;1.78;70.94;99649.27;108152;1271;23757;-78
2022/12/09 05:39:43;;;;;;;56.90;47.40;;;;;;;1.79;71.02;99648.23;108260;1283;23627;-79
2022/12/09 05:42:11;;;;;;;49.20;41.90;;;;;;;1.81;70.97;99651.13;108036;1284;23086;-79
2022/12/09 05:44:41;;;;;;;47.80;40.30;;;;;;;1.81;70.87;99651.98;108062;1284;21944;-79
2022/12/09 05:47:10;;;;;;;48.50;40.60;;;;;;;1.82;70.97;99650.95;108381;1280;21901;-79
2022/12/09 05:49:39;;;;;;;48.50;40.70;;;;;;;1.83;70.96;99654.36;108250;1285;21927;-77
2022/12/09 05:52:09;;;;;;;47.90;41.00;;;;;;;1.84;70.90;99654.70;108394;1272;23801;-77
2022/12/09 05:54:39;;;;;;;56.00;41.30;;;;;;;1.85;70.91;99660.70;108162;1283;21921;-77
2022/12/09 05:57:09;;;;;;;52.20;41.30;;;;;;;1.86;70.93;99657.08;107960;1280;22702;-79
2022/12/09 05:59:38;;;;;;;52.20;43.50;;;;;;;1.85;70.86;99653.81;108037;1284;21935;-77
2022/12/09 06:02:11;;;;;;;52.40;44.10;;;;;;;1.83;70.68;99655.57;107991;1283;23733;-77
2022/12/09 06:04:39;;;;;;;62.80;49.90;;;;;;;1.78;70.53;99658.72;108149;1271;23045;-82
2022/12/09 06:07:09;;;;;;;59.20;50.20;;;;;;;1.72;70.45;99657.77;108129;1283;21939;-78
2022/12/09 06:09:38;;;;;;;59.50;49.50;;;;;;;1.69;70.44;99659.33;108387;1282;23722;-78
2022/12/09 06:12:07;;;;;;;61.50;49.10;;;;;;;1.65;70.47;99657.51;108360;1268;23072;-78
2022/12/09 06:14:37;;;;;;;62.20;49.50;;;;;;;1.61;70.51;99657.05;108212;1272;23773;-80
2022/12/09 06:17:06;;;;;;;62.40;51.00;;;;;;;1.58;70.73;99659.30;107980;1280;23727;-78
2022/12/09 06:19:35;;;;;;;61.20;51.30;;;;;;;1.58;70.79;99662.56;108053;1284;23021;-78
2022/12/09 06:22:04;;;;;;;63.30;50.60;;;;;;;1.56;70.74;99664.30;108413;1284;23094;-78
2022/12/09 06:24:34;;;;;;;70.90;54.40;;;;;;;1.48;70.63;99664.41;108141;1285;22079;-76
2022/12/09 06:27:03;;;;;;;92.00;71.40;;;;;;;1.37;70.65;99662.80;108233;1283;22032;-78
2022/12/09 06:29:32;;;;;;;74.60;56.60;;;;;;;1.29;70.72;99661.70;108088;1285;21940;-79
2022/12/09 06:32:03;;;;;;;69.90;55.20;;;;;;;1.21;70.79;99665.04;108119;1284;21929;-77
2022/12/09 06:34:32;;;;;;;76.20;59.80;;;;;;;1.13;70.90;99666.66;108262;1281;23776;-78
2022/12/09 06:37:01;;;;;;;75.70;61.00;;;;;;;1.07;71.04;99669.30;108230;1284;21923;-79
2022/12/09 06:39:31;;;;;;;66.80;54.80;;;;;;;1.03;71.16;99672.43;108122;1283;21934;-78
2022/12/09 06:42:00;;;;;;;59.10;52.30;;;;;;;0.99;71.31;99671.44;108366;1282;21944;-78
2022/12/09 06:44:29;;;;;;;62.80;50.50;;;;;;;0.95;71.34;99675.76;108418;1283;21950;-78
2022/12/09 06:46:59;;;;;;;63.20;53.00;;;;;;;0.92;71.46;99678.02;108266;1283;21929;-77
2022/12/09 06:49:28;;;;;;;58.80;48.90;;;;;;;0.90;71.51;99677.85;107957;1286;23215;-78
2022/12/09 06:51:57;;;;;;;64.90;49.50;;;;;;;0.89;71.61;99673.76;107798;1286;22018;-79
2022/12/09 06:54:26;;;;;;;70.70;56.90;;;;;;;0.88;71.71;99673.08;107739;1289;21979;-78
2022/12/09 06:56:55;;;;;;;70.10;58.20;;;;;;;0.88;71.77;99672.75;107782;1289;22182;-79
2022/12/09 06:59:24;;;;;;;71.50;59.30;;;;;;;0.89;71.91;99678.20;107779;1288;23591;-79
2022/12/09 07:01:53;;;;;;;70.00;56.80;;;;;;;0.89;71.91;99676.65;107831;1288;21942;-78
2022/12/09 07:04:23;;;;;;;74.20;60.10;;;;;;;0.90;72.08;99675.97;107729;1279;21935;-78
2022/12/09 07:06:52;;;;;;;75.40;60.10;;;;;;;0.91;72.12;99673.90;107735;1285;22705;-79
2022/12/09 07:09:22;;;;;;;78.10;62.60;;;;;;;0.91;72.17;99674.42;108194;1284;21917;-78
2022/12/09 07:11:51;;;;;;;76.10;58.60;;;;;;;0.91;72.23;99673.05;108228;1273;23085;-80
2022/12/09 07:14:20;;;;;;;87.80;63.40;;;;;;;0.92;72.26;99677.32;108243;1282;22084;-78
2022/12/09 07:16:50;;;;;;;80.10;63.30;;;;;;;0.96;72.45;99679.69;108438;1284;21946;-79
2022/12/09 07:19:22;;;;;;;87.10;65.60;;;;;;;1.01;72.50;99673.30;108152;1284;21931;-79
2022/12/09 07:21:51;;;;;;;98.50;73.00;;;;;;;1.04;72.47;99672.75;107958;1290;21941;-78
2022/12/09 07:24:20;;;;;;;95.90;74.80;;;;;;;1.07;72.62;99672.04;107704;1289;22061;-79
2022/12/09 07:26:50;;;;;;;94.30;73.80;;;;;;;1.10;72.58;99674.06;107696;1281;22022;-81
2022/12/09 07:29:19;;;;;;;90.60;72.90;;;;;;;1.12;72.62;99678.51;107894;1290;22422;-78
2022/12/09 07:31:48;;;;;;;99.80;75.80;;;;;;;1.14;72.60;99678.14;107968;1286;23634;-78
2022/12/09 07:34:18;;;;;;;91.70;72.60;;;;;;;1.19;72.67;99676.89;107815;1290;23688;-79
2022/12/09 07:36:47;;;;;;;88.00;70.80;;;;;;;1.24;72.68;99673.92;107707;1288;21945;-80
2022/12/09 07:39:18;;;;;;;92.20;75.30;;;;;;;1.28;72.71;99678.67;107506;1292;21950;-77
2022/12/09 07:41:53;;;;;;;92.20;72.80;;;;;;;1.30;72.57;99675.91;107701;1290;23225;-79
2022/12/09 07:44:26;;;;;;;92.60;71.50;;;;;;;1.28;72.46;99677.30;107881;1281;22100;-80
2022/12/09 07:46:56;;;;;;;77.00;62.80;;;;;;;1.24;72.40;99676.00;107905;1285;23799;-79
2022/12/09 07:49:26;;;;;;;86.40;68.50;;;;;;;1.19;72.35;99675.52;107983;1285;23074;-80
2022/12/09 07:51:55;;;;;;;83.70;71.20;;;;;;;1.13;72.35;99679.01;107736;1289;21930;-79
2022/12/09 07:54:25;;;;;;;93.00;77.50;;;;;;;1.05;72.49;99674.63;107974;1286;22093;-78
2022/12/09 07:56:55;;;;;;;101.90;82.80;;;;;;;0.98;72.66;99678.13;108063;1279;21945;-80
2022/12/09 07:59:24;;;;;;;101.90;84.30;;;;;;;0.94;72.76;99679.19;108228;1281;21955;-80
2022/12/09 08:01:53;;;;;;;100.80;81.00;;;;;;;0.89;72.81;99678.73;108164;1279;21943;-79
2022/12/09 08:04:24;;;;;;;104.80;83.00;;;;;;;0.87;72.97;99678.05;108311;1282;21931;-80
2022/12/09 08:06:57;;;;;;;115.30;87.70;;;;;;;0.86;73.11;99678.07;108340;1282;21940;-80
2022/12/09 08:09:27;;;;;;;107.00;84.10;;;;;;;0.87;73.30;99680.45;108288;1282;23668;-81
2022/12/09 08:11:56;;;;;;;117.00;89.20;;;;;;;0.90;73.37;99686.42;108181;1281;23696;-80
2022/12/09 08:14:26;;;;;;;116.60;88.60;;;;;;;0.94;73.42;99690.16;108275;1279;21940;-81
2022/12/09 08:16:55;;;;;;;110.10;86.20;;;;;;;0.98;73.60;99692.52;108426;1282;22392;-81
2022/12/09 08:19:24;;;;;;;114.90;89.10;;;;;;;1.03;73.62;99691.96;108257;1282;21964;-80
2022/12/09 08:21:54;;;;;;;107.50;85.90;;;;;;;1.07;73.74;99695.86;108421;1282;21938;-80
2022/12/09 08:24:23;;;;;;;108.20;89.00;;;;;;;1.12;73.92;99695.98;108259;1282;23110;-80
2022/12/09 08:26:52;;;;;;;106.00;84.30;;;;;;;1.13;73.70;99703.69;108443;1281;21921;-80
2022/12/09 08:29:22;;;;;;;106.50;87.80;;;;;;;1.13;73.65;99701.63;108245;1278;21928;-80
2022/12/09 08:31:54;;;;;;;104.30;88.10;;;;;;;1.17;73.81;99703.46;108278;1281;23585;-80
2022/12/09 08:34:22;;;;;;;104.10;86.90;;;;;;;1.20;73.78;99702.59;107299;1282;1275224;-79
2022/12/09 08:36:52;;;;;;;102.40;87.30;;;;;;;1.23;73.73;99707.71;108474;1283;21994;-80
2022/12/09 08:39:29;;;;;;;101.50;83.80;;;;;;;1.25;73.73;99707.52;108395;1280;21947;-78
2022/12/09 08:41:58;;;;;;;104.50;85.40;;;;;;;1.28;73.72;99704.58;108270;1278;21948;-79
2022/12/09 08:44:27;;;;;;;111.40;86.20;;;;;;;1.32;73.79;99703.67;108213;1266;23073;-79
2022/12/09 08:46:56;;;;;;;103.90;84.40;;;;;;;1.38;73.80;99703.61;108361;1280;22278;-79
2022/12/09 08:49:28;;;;;;;107.90;88.80;;;;;;;1.45;73.83;99704.21;108295;1282;22487;-82
2022/12/09 08:51:57;;;;;;;97.90;82.10;;;;;;;1.49;73.73;99700.91;108437;1280;23081;-80
2022/12/09 08:54:26;;;;;;;94.80;80.30;;;;;;;1.53;73.79;99699.15;108164;1282;21945;-79
2022/12/09 08:56:55;;;;;;;94.60;80.30;;;;;;;1.59;73.87;99699.77;108423;1278;22390;-81
2022/12/09 08:59:24;;;;;;;105.20;89.60;;;;;;;1.66;73.87;99699.18;108396;1281;23677;-79
2022/12/09 09:01:54;;;;;;;105.70;90.90;;;;;;;1.70;73.77;99696.39;108451;1278;23079;-81
2022/12/09 09:04:23;;;;;;;126.90;104.20;;;;;;;1.74;73.76;99695.66;108435;1279;23823;-79
2022/12/09 09:06:53;;;;;;;99.90;85.10;;;;;;;1.79;73.80;99699.55;108458;1277;22069;-80
2022/12/09 09:09:22;;;;;;;91.90;80.80;;;;;;;1.82;73.54;99701.73;108319;1280;21932;-78
2022/12/09 09:11:52;;;;;;;97.20;81.60;;;;;;;1.82;73.47;99704.13;108439;1280;21943;-77
2022/12/09 09:14:21;;;;;;;95.10;79.90;;;;;;;1.82;73.57;99708.41;108433;1280;21998;-77
2022/12/09 09:16:50;;;;;;;95.10;82.20;;;;;;;1.84;73.61;99710.27;108472;1281;23582;-76
2022/12/09 09:19:24;;;;;;;94.90;82.60;;;;;;;1.90;73.73;99709.86;108462;1282;22017;-76
2022/12/09 09:21:54;;;;;;;98.00;84.00;;;;;;;1.98;73.64;99712.70;108330;1280;21900;-77
2022/12/09 09:24:24;;;;;;;114.80;94.50;;;;;;;2.01;73.52;99713.67;108253;1280;23059;-76
2022/12/09 09:26:53;;;;;;;106.60;87.60;;;;;;;2.02;73.37;99710.91;108380;1281;22278;-77
2022/12/09 09:29:23;;;;;;;101.30;90.10;;;;;;;2.02;73.22;99706.97;108138;1278;21984;-77
2022/12/09 09:31:52;;;;;;;100.00;89.10;;;;;;;2.00;73.23;99706.83;108087;1278;21979;-76
2022/12/09 09:34:25;;;;;;;100.10;88.80;;;;;;;2.00;73.20;99702.36;108416;1279;23883;-76
2022/12/09 09:36:55;;;;;;;102.60;87.30;;;;;;;2.02;73.33;99703.54;108062;1283;22134;-77
2022/12/09 09:39:25;;;;;;;101.80;88.30;;;;;;;2.13;73.69;99701.33;108442;1279;21941;-76
2022/12/09 09:41:59;;;;;;;98.50;87.40;;;;;;;2.25;73.89;99697.55;108133;1281;23073;-75
2022/12/09 09:44:42;;;;;;;105.20;90.00;;;;;;;2.36;73.90;99699.29;108384;1280;21942;-77
2022/12/09 09:47:18;;;;;;;108.30;88.30;;;;;;;2.44;73.87;99698.30;108247;1278;21949;-76
2022/12/09 09:50:18;;;;;;;102.30;80.60;;;;;;;2.52;73.65;99696.80;108064;1279;22001;-77
2022/12/09 09:52:51;;;;;;;91.80;72.10;;;;;;;2.57;73.44;99693.98;108478;1279;21960;-77
2022/12/09 09:55:41;;;;;;;89.40;70.70;;;;;;;2.64;73.37;99690.96;108229;1281;21943;-77
2022/12/09 09:58:44;;;;;;;75.60;60.70;;;;;;;2.68;73.34;99687.63;108181;1282;21958;-77
2022/12/09 10:01:17;;;;;;;72.00;59.10;;;;;;;2.74;73.20;99686.66;108079;1279;21937;-77
2022/12/09 10:04:18;;;;;;;68.20;58.10;;;;;;;2.78;72.98;99687.80;108234;1280;23076;-77
2022/12/09 10:07:04;;;;;;;72.50;59.00;;;;;;;2.81;72.88;99687.23;108164;1280;21955;-77
2022/12/09 10:10:02;;;;;;;70.00;57.40;;;;;;;2.84;72.85;99685.13;108241;1282;21943;-78
2022/12/09 10:12:59;;;;;;;67.40;56.90;;;;;;;2.85;72.62;99687.67;108439;1280;22403;-77
2022/12/09 10:16:10;;;;;;;68.40;53.80;;;;;;;2.87;72.60;99683.52;108449;1280;21946;-77
2022/12/09 10:19:17;;;;;;;69.20;53.60;;;;;;;2.88;72.54;99684.38;107683;1286;21949;-76
2022/12/09 10:21:50;;;;;;;70.70;56.10;;;;;;;2.87;72.20;99682.50;107641;1283;23084;-77
2022/12/09 10:24:31;;;;;;;68.40;58.40;;;;;;;2.87;72.01;99684.73;107765;1288;21949;-76
2022/12/09 10:27:32;;;;;;;75.90;60.40;;;;;;;2.86;71.92;99684.58;107646;1289;22399;-79
2022/12/09 10:30:13;;;;;;;86.90;64.50;;;;;;;2.88;72.07;99683.70;107477;1289;22020;-80
2022/12/09 10:32:44;;;;;;;89.20;66.70;;;;;;;2.90;72.02;99683.67;107599;1288;21961;-79
2022/12/09 10:35:25;;;;;;;103.70;84.40;;;;;;;2.94;72.02;99679.64;107283;1292;23702;-80
2022/12/09 10:38:09;;;;;;;82.80;68.00;;;;;;;2.97;72.04;99678.73;107434;1291;21932;-80
2022/12/09 10:40:44;;;;;;;84.00;65.40;;;;;;;2.97;71.87;99676.33;107442;1291;23630;-78
2022/12/09 10:43:37;;;;;;;83.80;69.20;;;;;;;2.97;71.81;99674.10;107492;1291;21950;-79
2022/12/09 10:46:23;;;;;;;82.10;67.70;;;;;;;2.96;71.72;99672.38;107427;1292;22722;-79
2022/12/09 10:49:00;;;;;;;88.60;72.30;;;;;;;2.95;71.51;99672.41;107449;1291;22456;-79
2022/12/09 10:51:34;;;;;;;93.60;71.00;;;;;;;2.93;71.51;99673.11;107621;1292;21950;-79
2022/12/09 10:54:10;;;;;;;87.50;72.00;;;;;;;2.93;71.42;99666.25;107665;1286;21949;-76
2022/12/09 10:57:28;;;;;;;90.40;74.00;;;;;;;2.92;71.37;99662.83;108303;1280;21934;-77
2022/12/09 11:00:18;;;;;;;92.10;73.80;;;;;;;2.93;71.48;99661.43;107746;1286;22378;-81
2022/12/09 11:02:52;;;;;;;95.20;80.70;;;;;;;2.98;71.79;99662.54;108178;1286;21961;-79
2022/12/09 11:05:30;;;;;;;78.60;68.70;;;;;;;3.05;71.79;99659.67;107885;1286;23108;-77
2022/12/09 11:08:00;;;;;;;79.60;67.50;;;;;;;3.10;71.78;99658.38;107899;1286;21967;-77
2022/12/09 11:10:47;;;;;;;88.30;70.70;;;;;;;3.16;71.58;99654.14;107869;1286;22799;-78
2022/12/09 11:13:21;;;;;;;91.30;70.00;;;;;;;3.19;71.63;99652.89;107866;1286;21944;-77
2022/12/09 11:15:52;;;;;;;103.40;80.40;;;;;;;3.21;71.59;99652.34;108204;1286;23748;-79
2022/12/09 11:18:31;;;;;;;116.10;86.00;;;;;;;3.22;71.47;99650.58;108332;1286;21949;-78
2022/12/09 11:21:04;;;;;;;108.90;81.80;;;;;;;3.22;71.45;99648.70;108069;1286;22414;-78
2022/12/09 11:23:52;;;;;;;78.80;66.30;;;;;;;3.22;71.28;99651.13;108121;1275;21954;-78
2022/12/09 11:26:42;;;;;;;78.50;63.40;;;;;;;3.19;71.27;99651.68;107905;1286;22806;-78
2022/12/09 11:29:18;;;;;;;84.60;67.60;;;;;;;3.16;71.25;99651.23;107809;1285;21963;-80
2022/12/09 11:31:48;;;;;;;81.80;66.40;;;;;;;3.15;71.28;99650.21;107939;1286;21945;-78
2022/12/09 11:34:24;;;;;;;79.80;68.20;;;;;;;3.15;71.24;99650.72;107862;1289;21995;-80
2022/12/09 11:36:57;;;;;;;72.40;63.70;;;;;;;3.17;71.37;99651.73;108341;1280;21949;-80
2022/12/09 11:39:31;;;;;;;75.60;62.00;;;;;;;3.17;71.19;99654.30;108456;1272;21923;-80
2022/12/09 11:42:17;;;;;;;79.60;65.30;;;;;;;3.12;71.15;99650.42;108043;1277;21946;-77
2022/12/09 11:44:55;;;;;;;85.00;67.50;;;;;;;3.09;71.24;99647.56;108244;1278;23690;-80
2022/12/09 11:47:36;;;;;;;76.40;64.90;;;;;;;3.11;71.43;99648.39;108443;1277;23047;-76
2022/12/09 11:50:30;;;;;;;73.30;64.00;;;;;;;3.14;71.63;99650.41;108461;1277;23635;-79